createdAt,value
2023-04-28T00:00:21.303Z,931.00
2023-04-28T00:01:21.313Z,929.00
2023-04-28T00:02:21.356Z,930.00
2023-04-28T00:03:21.432Z,930.00
2023-04-28T00:04:21.980Z,929.00
2023-04-28T00:05:21.989Z,928.00
2023-04-28T00:06:21.280Z,925.00
2023-04-28T00:07:21.279Z,925.00
2023-04-28T00:08:21.247Z,927.00
2023-04-28T00:09:21.227Z,929.00
2023-04-28T00:10:21.742Z,926.00
2023-04-28T00:11:21.224Z,921.00
2023-04-28T00:12:21.226Z,918.00
2023-04-28T00:13:21.215Z,916.00
2023-04-28T00:14:21.189Z,914.00
2023-04-28T00:15:21.212Z,911.00
2023-04-28T00:16:21.249Z,910.00
2023-04-28T00:17:21.233Z,914.00
2023-04-28T00:18:21.284Z,912.00
2023-04-28T00:19:21.181Z,912.00
2023-04-28T00:20:21.245Z,910.00
2023-04-28T00:21:21.144Z,910.00
2023-04-28T00:22:21.159Z,905.00
2023-04-28T00:23:21.168Z,905.00
2023-04-28T00:24:21.113Z,905.00
2023-04-28T00:25:21.247Z,907.00
2023-04-28T00:26:21.114Z,904.00
2023-04-28T00:27:21.136Z,900.00
2023-04-28T00:28:33.427Z,897.00
2023-04-28T00:29:22.127Z,896.00
2023-04-28T00:30:21.106Z,894.00
2023-04-28T00:31:21.087Z,890.00
2023-04-28T00:32:21.086Z,890.00
2023-04-28T00:33:21.066Z,884.00
2023-04-28T00:34:21.064Z,882.00
2023-04-28T00:35:21.231Z,881.00
2023-04-28T00:36:21.043Z,881.00
2023-04-28T00:37:21.054Z,881.00
2023-04-28T00:38:21.049Z,882.00
2023-04-28T00:39:21.018Z,880.00
2023-04-28T00:40:21.237Z,882.00
2023-04-28T00:41:21.019Z,881.00
2023-04-28T00:42:21.019Z,881.00
2023-04-28T00:43:21.006Z,874.00
2023-04-28T00:44:20.999Z,872.00
2023-04-28T00:45:21.251Z,872.00
2023-04-28T00:46:21.045Z,871.00
2023-04-28T00:47:20.977Z,866.00
2023-04-28T00:48:20.952Z,866.00
2023-04-28T00:49:20.985Z,863.00
2023-04-28T00:50:20.988Z,860.00
2023-04-28T00:51:20.974Z,858.00
2023-04-28T00:52:21.036Z,856.00
2023-04-28T00:53:21.028Z,854.00
2023-04-28T00:54:21.052Z,855.00
2023-04-28T00:55:21.082Z,860.00
2023-04-28T00:56:21.095Z,861.00
2023-04-28T00:57:21.138Z,861.00
2023-04-28T00:58:21.131Z,856.00
2023-04-28T00:59:21.165Z,854.00
2023-04-28T01:00:21.249Z,851.00
2023-04-28T01:01:21.312Z,850.00
2023-04-28T01:02:21.349Z,843.00
2023-04-28T01:03:21.419Z,842.00
2023-04-28T01:04:21.554Z,843.00
2023-04-28T01:05:21.310Z,842.00
2023-04-28T01:06:21.330Z,838.00
2023-04-28T01:07:21.381Z,835.00
2023-04-28T01:08:21.388Z,832.00
2023-04-28T01:09:21.438Z,828.00
2023-04-28T01:10:21.409Z,826.00
2023-04-28T01:11:21.453Z,824.00
2023-04-28T01:12:21.513Z,825.00
2023-04-28T01:13:21.523Z,823.00
2023-04-28T01:14:21.554Z,820.00
2023-04-28T01:15:21.620Z,822.00
2023-04-28T01:16:21.625Z,824.00
2023-04-28T01:17:21.599Z,821.00
2023-04-28T01:18:21.649Z,816.00
2023-04-28T01:19:21.673Z,814.00
2023-04-28T01:20:21.702Z,812.00
2023-04-28T01:21:21.737Z,810.00
2023-04-28T01:22:21.741Z,803.00
2023-04-28T01:23:21.798Z,802.00
2023-04-28T01:24:21.854Z,803.00
2023-04-28T01:25:21.857Z,803.00
2023-04-28T01:26:21.919Z,800.00
2023-04-28T01:27:21.920Z,803.00
2023-04-28T01:28:21.919Z,807.00
2023-04-28T01:29:21.991Z,806.00
2023-04-28T01:30:22.265Z,803.00
2023-04-28T01:31:22.080Z,802.00
2023-04-28T01:32:22.095Z,802.00
2023-04-28T01:33:22.092Z,802.00
2023-04-28T01:34:22.158Z,800.00
2023-04-28T01:35:22.255Z,798.00
2023-04-28T01:36:22.203Z,798.00
2023-04-28T01:37:22.232Z,796.00
2023-04-28T01:38:22.270Z,794.00
2023-04-28T01:39:22.281Z,796.00
2023-04-28T01:40:22.318Z,797.00
2023-04-28T01:41:22.412Z,797.00
2023-04-28T01:42:22.355Z,796.00
2023-04-28T01:43:22.420Z,798.00
2023-04-28T01:44:22.410Z,795.00
2023-04-28T01:45:22.456Z,795.00
2023-04-28T01:46:22.544Z,794.00
2023-04-28T01:47:22.591Z,793.00
2023-04-28T01:48:22.575Z,791.00
2023-04-28T01:49:22.579Z,787.00
2023-04-28T01:50:22.635Z,787.00
2023-04-28T01:51:22.693Z,785.00
2023-04-28T01:52:22.716Z,786.00
2023-04-28T01:53:22.745Z,781.00
2023-04-28T01:54:22.764Z,778.00
2023-04-28T01:55:22.842Z,778.00
2023-04-28T01:56:22.848Z,774.00
2023-04-28T01:57:22.873Z,774.00
2023-04-28T01:58:22.893Z,775.00
2023-04-28T01:59:22.927Z,773.00
2023-04-28T02:00:23.285Z,771.00
2023-04-28T02:01:23.070Z,769.00
2023-04-28T02:02:23.092Z,770.00
2023-04-28T02:03:23.174Z,769.00
2023-04-28T02:04:23.233Z,769.00
2023-04-28T02:05:23.152Z,768.00
2023-04-28T02:06:23.200Z,767.00
2023-04-28T02:07:23.198Z,768.00
2023-04-28T02:08:23.232Z,764.00
2023-04-28T02:09:23.273Z,766.00
2023-04-28T02:10:23.303Z,764.00
2023-04-28T02:11:23.356Z,763.00
2023-04-28T02:12:23.355Z,761.00
2023-04-28T02:13:23.413Z,761.00
2023-04-28T02:14:23.456Z,761.00
2023-04-28T02:15:23.485Z,761.00
2023-04-28T02:16:23.513Z,758.00
2023-04-28T02:17:23.571Z,758.00
2023-04-28T02:18:23.567Z,756.00
2023-04-28T02:19:23.622Z,751.00
2023-04-28T02:20:23.647Z,750.00
2023-04-28T02:21:23.720Z,750.00
2023-04-28T02:22:23.726Z,753.00
2023-04-28T02:23:23.782Z,751.00
2023-04-28T02:24:23.797Z,747.00
2023-04-28T02:25:23.873Z,749.00
2023-04-28T02:26:23.900Z,746.00
2023-04-28T02:27:23.947Z,746.00
2023-04-28T02:28:23.960Z,745.00
2023-04-28T02:29:23.988Z,746.00
2023-04-28T02:30:24.043Z,744.00
2023-04-28T02:31:24.125Z,742.00
2023-04-28T02:32:24.154Z,741.00
2023-04-28T02:33:24.160Z,741.00
2023-04-28T02:34:24.201Z,742.00
2023-04-28T02:35:24.233Z,741.00
2023-04-28T02:36:24.302Z,741.00
2023-04-28T02:37:24.346Z,738.00
2023-04-28T02:38:24.381Z,740.00
2023-04-28T02:39:24.402Z,738.00
2023-04-28T02:40:24.428Z,740.00
2023-04-28T02:41:24.758Z,736.00
2023-04-28T02:42:24.542Z,733.00
2023-04-28T02:43:24.562Z,734.00
2023-04-28T02:44:24.618Z,731.00
2023-04-28T02:45:24.660Z,729.00
2023-04-28T02:46:24.684Z,727.00
2023-04-28T02:47:24.751Z,726.00
2023-04-28T02:48:24.781Z,722.00
2023-04-28T02:49:24.803Z,723.00
2023-04-28T02:50:24.819Z,725.00
2023-04-28T02:51:24.877Z,728.00
2023-04-28T02:52:24.925Z,727.00
2023-04-28T02:53:24.939Z,725.00
2023-04-28T02:54:24.987Z,721.00
2023-04-28T02:55:25.038Z,721.00
2023-04-28T02:56:25.073Z,720.00
2023-04-28T02:57:25.112Z,722.00
2023-04-28T02:58:25.152Z,725.00
2023-04-28T02:59:25.220Z,726.00
2023-04-28T03:00:25.235Z,723.00
2023-04-28T03:01:25.317Z,720.00
2023-04-28T03:02:25.422Z,722.00
2023-04-28T03:03:25.521Z,720.00
2023-04-28T03:04:25.532Z,721.00
2023-04-28T03:05:25.479Z,722.00
2023-04-28T03:06:25.522Z,722.00
2023-04-28T03:07:25.555Z,719.00
2023-04-28T03:08:25.592Z,718.00
2023-04-28T03:09:25.662Z,721.00
2023-04-28T03:10:25.677Z,720.00
2023-04-28T03:11:25.831Z,716.00
2023-04-28T03:12:25.782Z,716.00
2023-04-28T03:13:25.839Z,720.00
2023-04-28T03:14:25.895Z,718.00
2023-04-28T03:15:25.911Z,719.00
2023-04-28T03:16:25.974Z,720.00
2023-04-28T03:17:26.049Z,720.00
2023-04-28T03:18:26.054Z,721.00
2023-04-28T03:19:26.085Z,721.00
2023-04-28T03:20:26.186Z,717.00
2023-04-28T03:21:26.204Z,713.00
2023-04-28T03:22:26.211Z,712.00
2023-04-28T03:23:26.291Z,711.00
2023-04-28T03:24:26.333Z,710.00
2023-04-28T03:25:26.402Z,714.00
2023-04-28T03:26:26.400Z,711.00
2023-04-28T03:27:26.460Z,712.00
2023-04-28T03:28:26.476Z,710.00
2023-04-28T03:29:26.572Z,709.00
2023-04-28T03:30:26.580Z,709.00
2023-04-28T03:31:26.619Z,706.00
2023-04-28T03:32:26.748Z,702.00
2023-04-28T03:33:26.731Z,701.00
2023-04-28T03:34:26.763Z,702.00
2023-04-28T03:35:26.817Z,707.00
2023-04-28T03:36:26.864Z,705.00
2023-04-28T03:37:26.891Z,703.00
2023-04-28T03:38:26.932Z,705.00
2023-04-28T03:39:26.991Z,706.00
2023-04-28T03:40:27.004Z,704.00
2023-04-28T03:41:27.061Z,704.00
2023-04-28T03:42:27.179Z,701.00
2023-04-28T03:43:27.184Z,702.00
2023-04-28T03:44:27.215Z,700.00
2023-04-28T03:45:27.277Z,700.00
2023-04-28T03:46:27.485Z,698.00
2023-04-28T03:47:27.372Z,700.00
2023-04-28T03:48:27.499Z,696.00
2023-04-28T03:49:27.495Z,697.00
2023-04-28T03:50:27.532Z,696.00
2023-04-28T03:51:27.587Z,694.00
2023-04-28T03:52:27.657Z,688.00
2023-04-28T03:53:27.663Z,688.00
2023-04-28T03:54:27.726Z,685.00
2023-04-28T03:55:27.783Z,687.00
2023-04-28T03:56:27.822Z,686.00
2023-04-28T03:57:27.854Z,684.00
2023-04-28T03:58:27.878Z,681.00
2023-04-28T03:59:27.922Z,677.00
2023-04-28T04:00:27.994Z,679.00
2023-04-28T04:01:28.119Z,681.00
2023-04-28T04:02:28.193Z,683.00
2023-04-28T04:03:28.256Z,683.00
2023-04-28T04:04:28.308Z,686.00
2023-04-28T04:05:28.286Z,685.00
2023-04-28T04:06:28.229Z,683.00
2023-04-28T04:07:28.258Z,680.00
2023-04-28T04:08:28.307Z,680.00
2023-04-28T04:09:28.358Z,678.00
2023-04-28T04:10:28.368Z,676.00
2023-04-28T04:11:28.424Z,676.00
2023-04-28T04:12:28.467Z,672.00
2023-04-28T04:13:28.488Z,672.00
2023-04-28T04:14:28.573Z,667.00
2023-04-28T04:15:28.587Z,669.00
2023-04-28T04:16:28.747Z,673.00
2023-04-28T04:17:28.704Z,673.00
2023-04-28T04:18:28.718Z,672.00
2023-04-28T04:19:28.781Z,669.00
2023-04-28T04:20:28.807Z,669.00
2023-04-28T04:21:28.880Z,667.00
2023-04-28T04:22:28.911Z,665.00
2023-04-28T04:23:28.923Z,663.00
2023-04-28T04:24:29.001Z,660.00
2023-04-28T04:25:29.037Z,661.00
2023-04-28T04:26:29.338Z,659.00
2023-04-28T04:27:29.127Z,658.00
2023-04-28T04:28:29.166Z,656.00
2023-04-28T04:29:29.211Z,659.00
2023-04-28T04:30:29.249Z,657.00
2023-04-28T04:31:29.363Z,658.00
2023-04-28T04:32:29.436Z,661.00
2023-04-28T04:33:29.378Z,663.00
2023-04-28T04:34:29.438Z,663.00
2023-04-28T04:35:29.431Z,659.00
2023-04-28T04:36:29.500Z,659.00
2023-04-28T04:37:29.530Z,658.00
2023-04-28T04:38:29.535Z,660.00
2023-04-28T04:39:29.624Z,659.00
2023-04-28T04:40:29.672Z,659.00
2023-04-28T04:41:29.746Z,656.00
2023-04-28T04:42:29.744Z,655.00
2023-04-28T04:43:29.783Z,654.00
2023-04-28T04:44:29.815Z,654.00
2023-04-28T04:45:29.868Z,649.00
2023-04-28T04:46:29.912Z,651.00
2023-04-28T04:47:30.009Z,650.00
2023-04-28T04:48:30.024Z,653.00
2023-04-28T04:49:30.054Z,649.00
2023-04-28T04:50:30.080Z,648.00
2023-04-28T04:51:30.151Z,648.00
2023-04-28T04:52:30.193Z,646.00
2023-04-28T04:53:30.225Z,645.00
2023-04-28T04:54:30.297Z,645.00
2023-04-28T04:55:30.345Z,645.00
2023-04-28T04:56:30.392Z,645.00
2023-04-28T04:57:30.429Z,647.00
2023-04-28T04:58:30.475Z,647.00
2023-04-28T04:59:30.525Z,646.00
2023-04-28T05:00:30.570Z,643.00
2023-04-28T05:01:30.836Z,640.00
2023-04-28T05:02:30.763Z,641.00
2023-04-28T05:03:30.833Z,641.00
2023-04-28T05:04:30.918Z,640.00
2023-04-28T05:05:30.893Z,638.00
2023-04-28T05:06:31.320Z,637.00
2023-04-28T05:07:30.896Z,637.00
2023-04-28T05:08:30.914Z,642.00
2023-04-28T05:09:30.962Z,647.00
2023-04-28T05:10:31.023Z,648.00
2023-04-28T05:11:31.318Z,646.00
2023-04-28T05:12:31.098Z,644.00
2023-04-28T05:13:31.145Z,641.00
2023-04-28T05:14:31.170Z,643.00
2023-04-28T05:15:31.245Z,645.00
2023-04-28T05:16:31.322Z,644.00
2023-04-28T05:17:31.387Z,644.00
2023-04-28T05:18:31.329Z,642.00
2023-04-28T05:19:31.395Z,637.00
2023-04-28T05:20:31.454Z,637.00
2023-04-28T05:21:31.485Z,635.00
2023-04-28T05:22:31.536Z,635.00
2023-04-28T05:23:31.576Z,633.00
2023-04-28T05:24:31.659Z,633.00
2023-04-28T05:25:31.667Z,633.00
2023-04-28T05:26:31.756Z,635.00
2023-04-28T05:27:31.786Z,636.00
2023-04-28T05:28:31.859Z,634.00
2023-04-28T05:29:31.896Z,636.00
2023-04-28T05:30:31.935Z,632.00
2023-04-28T05:31:32.007Z,630.00
2023-04-28T05:32:32.066Z,631.00
2023-04-28T05:33:32.069Z,630.00
2023-04-28T05:34:32.095Z,628.00
2023-04-28T05:35:32.176Z,626.00
2023-04-28T05:36:32.208Z,629.00
2023-04-28T05:37:32.235Z,628.00
2023-04-28T05:38:32.301Z,626.00
2023-04-28T05:39:32.294Z,625.00
2023-04-28T05:40:32.367Z,622.00
2023-04-28T05:41:32.838Z,625.00
2023-04-28T05:42:32.392Z,626.00
2023-04-28T05:43:32.469Z,622.00
2023-04-28T05:44:32.471Z,621.00
2023-04-28T05:45:32.534Z,622.00
2023-04-28T05:46:32.905Z,623.00
2023-04-28T05:47:32.629Z,623.00
2023-04-28T05:48:32.641Z,625.00
2023-04-28T05:49:32.650Z,630.00
2023-04-28T05:50:32.686Z,655.00
2023-04-28T05:51:32.854Z,686.00
2023-04-28T05:52:32.811Z,643.00
2023-04-28T05:53:32.870Z,633.00
2023-04-28T05:54:32.870Z,699.00
2023-04-28T05:55:32.928Z,681.00
2023-04-28T05:56:33.008Z,658.00
2023-04-28T05:57:41.723Z,658.00
2023-04-28T05:58:34.002Z,657.00
2023-04-28T05:59:33.010Z,633.00
2023-04-28T06:00:32.995Z,644.00
2023-04-28T06:01:33.386Z,645.00
2023-04-28T06:02:33.128Z,726.00
2023-04-28T06:03:33.235Z,721.00
2023-04-28T06:04:33.141Z,718.00
2023-04-28T06:05:33.367Z,694.00
2023-04-28T06:06:32.963Z,672.00
2023-04-28T06:07:32.955Z,669.00
2023-04-28T06:08:33.049Z,679.00
2023-04-28T06:09:33.103Z,711.00
2023-04-28T06:10:33.132Z,713.00
2023-04-28T06:11:33.353Z,711.00
2023-04-28T06:12:33.254Z,707.00
2023-04-28T06:13:33.295Z,706.00
2023-04-28T06:14:33.375Z,721.00
2023-04-28T06:15:33.448Z,725.00
2023-04-28T06:16:33.941Z,723.00
2023-04-28T06:17:33.526Z,720.00
2023-04-28T06:18:33.522Z,723.00
2023-04-28T06:19:33.577Z,721.00
2023-04-28T06:20:33.627Z,711.00
2023-04-28T06:21:33.887Z,710.00
2023-04-28T06:22:33.694Z,704.00
2023-04-28T06:23:33.741Z,698.00
2023-04-28T06:24:33.765Z,704.00
2023-04-28T06:25:33.815Z,707.00
2023-04-28T06:26:34.352Z,707.00
2023-04-28T06:27:33.894Z,713.00
2023-04-28T06:28:33.971Z,721.00
2023-04-28T06:29:33.970Z,730.00
2023-04-28T06:30:34.023Z,730.00
2023-04-28T06:31:34.142Z,733.00
2023-04-28T06:32:34.127Z,739.00
2023-04-28T06:33:34.162Z,748.00
2023-04-28T06:34:34.144Z,741.00
2023-04-28T06:35:34.195Z,742.00
2023-04-28T06:36:34.264Z,731.00
2023-04-28T06:37:34.238Z,735.00
2023-04-28T06:38:34.279Z,735.00
2023-04-28T06:39:34.307Z,745.00
2023-04-28T06:40:34.317Z,790.00
2023-04-28T06:41:34.388Z,811.00
2023-04-28T06:42:34.347Z,811.00
2023-04-28T06:43:34.367Z,810.00
2023-04-28T06:44:36.350Z,862.00
2023-04-28T06:45:34.366Z,888.00
2023-04-28T06:46:34.410Z,900.00
2023-04-28T06:47:34.428Z,905.00
2023-04-28T06:48:34.406Z,909.00
2023-04-28T06:49:34.399Z,919.00
2023-04-28T06:50:34.368Z,936.00
2023-04-28T06:51:34.401Z,992.00
2023-04-28T06:52:39.216Z,1030.00
2023-04-28T06:53:34.362Z,1057.00
2023-04-28T06:54:34.384Z,1050.00
2023-04-28T06:55:34.366Z,1018.00
2023-04-28T06:56:34.373Z,998.00
2023-04-28T06:57:34.356Z,982.00
2023-04-28T06:58:34.370Z,980.00
2023-04-28T06:59:34.354Z,996.00
2023-04-28T07:00:34.409Z,1014.00
2023-04-28T07:01:34.424Z,1024.00
2023-04-28T07:02:34.559Z,1045.00
2023-04-28T07:03:34.708Z,1043.00
2023-04-28T07:04:34.585Z,1051.00
2023-04-28T07:05:34.632Z,1057.00
2023-04-28T07:06:34.682Z,1068.00
2023-04-28T07:07:34.744Z,1092.00
2023-04-28T07:08:34.814Z,1097.00
2023-04-28T07:09:34.847Z,1182.00
2023-04-28T07:10:34.916Z,1174.00
2023-04-28T07:11:35.376Z,1162.00
2023-04-28T07:12:35.056Z,1159.00
2023-04-28T07:13:35.110Z,1175.00
2023-04-28T07:14:35.194Z,1201.00
2023-04-28T07:15:35.254Z,1208.00
2023-04-28T07:16:35.374Z,1207.00
2023-04-28T07:17:35.419Z,1230.00
2023-04-28T07:18:35.473Z,1262.00
2023-04-28T07:19:35.473Z,1327.00
2023-04-28T07:20:35.582Z,1320.00
2023-04-28T07:21:35.589Z,1312.00
2023-04-28T07:22:35.650Z,1314.00
2023-04-28T07:23:35.704Z,1305.00
2023-04-28T07:24:35.755Z,1315.00
2023-04-28T07:25:35.833Z,1346.00
2023-04-28T07:26:35.911Z,1391.00
2023-04-28T07:27:35.932Z,1412.00
2023-04-28T07:28:35.994Z,1408.00
2023-04-28T07:29:36.050Z,1413.00
2023-04-28T07:30:36.090Z,1423.00
2023-04-28T07:31:36.414Z,1449.00
2023-04-28T07:32:36.203Z,1475.00
2023-04-28T07:33:36.293Z,1552.00
2023-04-28T07:34:36.284Z,1556.00
2023-04-28T07:35:36.335Z,1553.00
2023-04-28T07:36:36.885Z,1558.00
2023-04-28T07:37:36.419Z,1571.00
2023-04-28T07:38:36.465Z,1575.00
2023-04-28T07:39:36.486Z,1580.00
2023-04-28T07:40:36.594Z,1594.00
2023-04-28T07:41:36.585Z,1618.00
2023-04-28T07:42:36.645Z,1639.00
2023-04-28T07:43:36.716Z,1654.00
2023-04-28T07:44:36.788Z,1659.00
2023-04-28T07:45:36.793Z,1663.00
2023-04-28T07:46:36.850Z,1670.00
2023-04-28T07:47:36.932Z,1759.00
2023-04-28T07:48:36.849Z,1771.00
2023-04-28T07:49:36.905Z,1805.00
2023-04-28T07:50:36.927Z,1772.00
2023-04-28T07:51:36.964Z,1717.00
2023-04-28T07:52:36.971Z,1574.00
2023-04-28T07:53:37.054Z,1439.00
2023-04-28T07:54:37.323Z,1352.00
2023-04-28T07:55:37.093Z,1235.00
2023-04-28T07:56:37.195Z,1240.00
2023-04-28T07:57:37.396Z,1237.00
2023-04-28T07:58:37.306Z,1215.00
2023-04-28T07:59:37.382Z,1175.00
2023-04-28T08:00:38.649Z,1147.00
2023-04-28T08:01:37.406Z,1120.00
2023-04-28T08:02:38.520Z,1086.00
2023-04-28T08:03:37.514Z,1044.00
2023-04-28T08:04:37.605Z,1051.00
2023-04-28T08:05:37.382Z,1181.00
2023-04-28T08:06:37.367Z,1199.00
2023-04-28T08:07:37.382Z,1186.00
2023-04-28T08:08:37.363Z,1197.00
2023-04-28T08:09:37.357Z,1264.00
2023-04-28T08:10:37.310Z,1335.00
2023-04-28T08:11:37.328Z,1336.00
2023-04-28T08:12:37.317Z,1336.00
2023-04-28T08:13:37.317Z,1343.00
2023-04-28T08:14:37.332Z,1343.00
2023-04-28T08:15:37.308Z,1351.00
2023-04-28T08:16:37.295Z,1403.00
2023-04-28T08:17:37.302Z,1412.00
2023-04-28T08:18:37.294Z,1415.00
2023-04-28T08:19:37.297Z,1423.00
2023-04-28T08:20:37.268Z,1452.00
2023-04-28T08:21:37.277Z,1466.00
2023-04-28T08:22:37.262Z,1469.00
2023-04-28T08:23:37.238Z,1481.00
2023-04-28T08:24:37.228Z,1494.00
2023-04-28T08:25:37.205Z,1515.00
2023-04-28T08:26:37.206Z,1572.00
2023-04-28T08:27:37.412Z,1581.00
2023-04-28T08:28:37.200Z,1600.00
2023-04-28T08:29:37.229Z,1593.00
2023-04-28T08:30:37.224Z,1580.00
2023-04-28T08:31:37.295Z,1571.00
2023-04-28T08:32:37.444Z,1626.00
2023-04-28T08:33:37.350Z,1655.00
2023-04-28T08:34:37.369Z,1686.00
2023-04-28T08:35:37.447Z,1685.00
2023-04-28T08:36:37.500Z,1703.00
2023-04-28T08:37:37.510Z,1698.00
2023-04-28T08:38:37.552Z,1710.00
2023-04-28T08:39:37.587Z,1683.00
2023-04-28T08:40:37.640Z,1687.00
2023-04-28T08:41:37.677Z,1738.00
2023-04-28T08:42:37.758Z,1735.00
2023-04-28T08:43:37.747Z,1735.00
2023-04-28T08:44:37.803Z,1741.00
2023-04-28T08:45:37.813Z,1752.00
2023-04-28T08:46:37.859Z,1763.00
2023-04-28T08:47:37.951Z,1789.00
2023-04-28T08:48:37.932Z,1816.00
2023-04-28T08:49:37.993Z,1781.00
2023-04-28T08:50:38.006Z,1674.00
2023-04-28T08:51:39.573Z,1564.00
2023-04-28T08:52:38.066Z,1501.00
2023-04-28T08:53:59.425Z,1474.00
2023-04-28T08:54:39.036Z,1398.00
2023-04-28T08:55:38.080Z,1407.00
2023-04-28T08:56:38.031Z,1351.00
2023-04-28T08:57:39.471Z,1310.00
2023-04-28T08:58:37.999Z,1312.00
2023-04-28T08:59:38.010Z,1446.00
2023-04-28T09:00:38.024Z,1380.00
2023-04-28T09:01:38.010Z,1506.00
2023-04-28T09:02:38.559Z,1400.00
2023-04-28T09:03:38.071Z,1430.00
2023-04-28T09:04:38.148Z,1432.00
2023-04-28T09:05:37.997Z,1401.00
2023-04-28T09:06:37.959Z,1381.00
2023-04-28T09:07:37.967Z,1344.00
2023-04-28T09:08:37.949Z,1342.00
2023-04-28T09:09:39.305Z,1341.00
2023-04-28T09:10:37.932Z,1372.00
2023-04-28T09:11:37.925Z,1388.00
2023-04-28T09:12:37.938Z,1450.00
2023-04-28T09:13:37.917Z,1406.00
2023-04-28T09:14:37.930Z,1214.00
2023-04-28T09:15:37.928Z,1145.00
2023-04-28T09:16:37.971Z,1045.00
2023-04-28T09:17:37.958Z,1033.00
2023-04-28T09:18:37.909Z,1026.00
2023-04-28T09:19:37.891Z,1020.00
2023-04-28T09:20:37.891Z,1066.00
2023-04-28T09:21:37.868Z,983.00
2023-04-28T09:22:37.874Z,936.00
2023-04-28T09:23:37.846Z,935.00
2023-04-28T09:24:37.854Z,954.00
2023-04-28T09:25:37.812Z,949.00
2023-04-28T09:26:37.837Z,928.00
2023-04-28T09:27:37.841Z,898.00
2023-04-28T09:28:37.831Z,881.00
2023-04-28T09:29:37.812Z,873.00
2023-04-28T09:30:37.821Z,873.00
2023-04-28T09:31:37.863Z,875.00
2023-04-28T09:32:37.888Z,874.00
2023-04-28T09:33:37.789Z,871.00
2023-04-28T09:34:37.777Z,859.00
2023-04-28T09:35:37.784Z,846.00
2023-04-28T09:36:37.760Z,876.00
2023-04-28T09:37:37.982Z,879.00
2023-04-28T09:38:37.966Z,873.00
2023-04-28T09:39:37.952Z,870.00
2023-04-28T09:40:38.006Z,875.00
2023-04-28T09:41:38.050Z,883.00
2023-04-28T09:42:38.081Z,890.00
2023-04-28T09:43:38.133Z,885.00
2023-04-28T09:44:38.186Z,875.00
2023-04-28T09:45:38.243Z,873.00
2023-04-28T09:46:38.255Z,872.00
2023-04-28T09:47:38.540Z,858.00
2023-04-28T09:48:38.338Z,1019.00
2023-04-28T09:49:38.376Z,1017.00
2023-04-28T09:50:38.360Z,1108.00
2023-04-28T09:51:38.350Z,1115.00
2023-04-28T09:52:38.437Z,1140.00
2023-04-28T09:53:38.362Z,1113.00
2023-04-28T09:54:38.467Z,1123.00
2023-04-28T09:55:38.498Z,1220.00
2023-04-28T09:56:40.421Z,1233.00
2023-04-28T09:57:38.923Z,1333.00
2023-04-28T09:58:38.690Z,1328.00
2023-04-28T09:59:38.707Z,1294.00
2023-04-28T10:00:38.784Z,1280.00
2023-04-28T10:01:38.910Z,1287.00
2023-04-28T10:02:43.278Z,1300.00
2023-04-28T10:03:40.028Z,1305.00
2023-04-28T10:04:39.095Z,1307.00
2023-04-28T10:05:39.006Z,1306.00
2023-04-28T10:06:38.867Z,1294.00
2023-04-28T10:07:38.864Z,1284.00
2023-04-28T10:08:38.850Z,1292.00
2023-04-28T10:09:38.894Z,1294.00
2023-04-28T10:10:38.871Z,1292.00
2023-04-28T10:11:38.949Z,1291.00
2023-04-28T10:12:39.456Z,1287.00
2023-04-28T10:13:39.067Z,1281.00
2023-04-28T10:14:39.087Z,1338.00
2023-04-28T10:15:39.121Z,1383.00
2023-04-28T10:16:39.091Z,1415.00
2023-04-28T10:17:39.473Z,1412.00
2023-04-28T10:18:39.172Z,1409.00
2023-04-28T10:19:39.242Z,1412.00
2023-04-28T10:20:39.235Z,1421.00
2023-04-28T10:21:39.482Z,1528.00
2023-04-28T10:22:39.340Z,1523.00
2023-04-28T10:23:39.430Z,1512.00
2023-04-28T10:24:39.476Z,1511.00
2023-04-28T10:25:39.514Z,1516.00
2023-04-28T10:26:39.591Z,1531.00
2023-04-28T10:27:39.682Z,1545.00
2023-04-28T10:28:42.030Z,1578.00
2023-04-28T10:29:39.676Z,1587.00
2023-04-28T10:30:39.663Z,1600.00
2023-04-28T10:31:39.756Z,1618.00
2023-04-28T10:32:39.669Z,1633.00
2023-04-28T10:33:39.988Z,1660.00
2023-04-28T10:34:39.675Z,1669.00
2023-04-28T10:35:39.639Z,1691.00
2023-04-28T10:36:39.627Z,1706.00
2023-04-28T10:37:39.684Z,1722.00
2023-04-28T10:38:39.638Z,1741.00
2023-04-28T10:39:39.646Z,1837.00
2023-04-28T10:40:39.630Z,1871.00
2023-04-28T10:41:39.617Z,1895.00
2023-04-28T10:42:39.622Z,1830.00
2023-04-28T10:43:39.934Z,1825.00
2023-04-28T10:44:39.638Z,1882.00
2023-04-28T10:45:39.613Z,1902.00
2023-04-28T10:46:39.576Z,1892.00
2023-04-28T10:47:39.626Z,1877.00
2023-04-28T10:48:39.953Z,1861.00
2023-04-28T10:49:39.564Z,1808.00
2023-04-28T10:50:39.565Z,1776.00
2023-04-28T10:51:39.573Z,1775.00
2023-04-28T10:52:39.575Z,1770.00
2023-04-28T10:53:39.966Z,1759.00
2023-04-28T10:54:39.524Z,1750.00
2023-04-28T10:55:39.546Z,1752.00
2023-04-28T10:56:41.831Z,1745.00
2023-04-28T10:57:39.656Z,1730.00
2023-04-28T10:58:39.728Z,1726.00
2023-04-28T10:59:39.810Z,1723.00
2023-04-28T11:00:39.848Z,1723.00
2023-04-28T11:01:39.960Z,1721.00
2023-04-28T11:02:42.891Z,1715.00
2023-04-28T11:03:40.689Z,1706.00
2023-04-28T11:04:40.009Z,1700.00
2023-04-28T11:05:39.970Z,1696.00
2023-04-28T11:06:39.976Z,1680.00
2023-04-28T11:07:39.969Z,1677.00
2023-04-28T11:08:39.942Z,1679.00
2023-04-28T11:09:39.929Z,1677.00
2023-04-28T11:10:39.909Z,1674.00
2023-04-28T11:11:39.923Z,1671.00
2023-04-28T11:12:39.909Z,1670.00
2023-04-28T11:13:41.915Z,1662.00
2023-04-28T11:14:39.878Z,1658.00
2023-04-28T11:15:39.876Z,1650.00
2023-04-28T11:16:39.949Z,1641.00
2023-04-28T11:17:39.914Z,1633.00
2023-04-28T11:18:39.857Z,1606.00
2023-04-28T11:19:39.880Z,1589.00
2023-04-28T11:20:39.845Z,1592.00
2023-04-28T11:21:39.851Z,1597.00
2023-04-28T11:22:39.855Z,1603.00
2023-04-28T11:23:39.964Z,1611.00
2023-04-28T11:24:39.802Z,1611.00
2023-04-28T11:25:39.814Z,1610.00
2023-04-28T11:26:39.810Z,1601.00
2023-04-28T11:27:39.785Z,1590.00
2023-04-28T11:28:39.964Z,1576.00
2023-04-28T11:29:39.839Z,1561.00
2023-04-28T11:30:39.780Z,1555.00
2023-04-28T11:31:39.816Z,1550.00
2023-04-28T11:32:39.782Z,1548.00
2023-04-28T11:33:39.978Z,1538.00
2023-04-28T11:34:39.733Z,1537.00
2023-04-28T11:35:39.763Z,1536.00
2023-04-28T11:36:39.759Z,1547.00
2023-04-28T11:37:39.723Z,1547.00
2023-04-28T11:38:39.714Z,1543.00
2023-04-28T11:39:39.716Z,1535.00
2023-04-28T11:40:39.713Z,1529.00
2023-04-28T11:41:39.841Z,1524.00
2023-04-28T11:42:39.686Z,1519.00
2023-04-28T11:43:47.041Z,1509.00
2023-04-28T11:44:40.674Z,1503.00
2023-04-28T11:45:39.850Z,1496.00
2023-04-28T11:46:39.716Z,1490.00
2023-04-28T11:47:39.697Z,1484.00
2023-04-28T11:48:39.663Z,1482.00
2023-04-28T11:49:39.669Z,1482.00
2023-04-28T11:50:39.629Z,1480.00
2023-04-28T11:51:39.652Z,1485.00
2023-04-28T11:52:39.632Z,1514.00
2023-04-28T11:53:39.971Z,1499.00
2023-04-28T11:54:39.641Z,1500.00
2023-04-28T11:55:39.599Z,1499.00
2023-04-28T11:56:39.666Z,1500.00
2023-04-28T11:57:39.579Z,1499.00
2023-04-28T11:58:39.977Z,1497.00
2023-04-28T11:59:40.794Z,1487.00
2023-04-28T12:00:39.594Z,1478.00
2023-04-28T12:01:39.594Z,1458.00
2023-04-28T12:02:39.712Z,1448.00
2023-04-28T12:03:40.044Z,1439.00
2023-04-28T12:04:39.563Z,1433.00
2023-04-28T12:05:39.622Z,1432.00
2023-04-28T12:06:39.547Z,1436.00
2023-04-28T12:07:39.519Z,1441.00
2023-04-28T12:08:39.552Z,1451.00
2023-04-28T12:09:39.523Z,1461.00
2023-04-28T12:10:39.535Z,1467.00
2023-04-28T12:11:39.538Z,1470.00
2023-04-28T12:12:50.043Z,1469.00
2023-04-28T12:13:40.519Z,1473.00
2023-04-28T12:14:39.461Z,1479.00
2023-04-28T12:15:39.556Z,1482.00
2023-04-28T12:16:39.499Z,1481.00
2023-04-28T12:17:39.527Z,1482.00
2023-04-28T12:18:39.478Z,1482.00
2023-04-28T12:19:39.480Z,1484.00